sensor_id;sensor_type;location;lat;lon;timestamp;P1;durP1;ratioP1;P2;durP2;ratioP2
59193;SDS011;44967;48.598;15.650;2023-07-16T00:01:27;3.60;;;3.22;;
59193;SDS011;44967;48.598;15.650;2023-07-16T00:03:53;4.00;;;3.67;;
59193;SDS011;44967;48.598;15.650;2023-07-16T00:06:19;3.85;;;3.17;;
59193;SDS011;44967;48.598;15.650;2023-07-16T00:08:44;6.47;;;3.53;;
59193;SDS011;44967;48.598;15.650;2023-07-16T00:11:10;3.58;;;3.15;;
59193;SDS011;44967;48.598;15.650;2023-07-16T00:13:36;4.70;;;3.67;;
59193;SDS011;44967;48.598;15.650;2023-07-16T00:16:01;3.63;;;3.33;;
59193;SDS011;44967;48.598;15.650;2023-07-16T00:18:27;3.47;;;3.15;;
59193;SDS011;44967;48.598;15.650;2023-07-16T00:20:54;4.97;;;3.75;;
59193;SDS011;44967;48.598;15.650;2023-07-16T00:23:19;5.00;;;3.47;;
59193;SDS011;44967;48.598;15.650;2023-07-16T00:25:45;3.90;;;3.50;;
59193;SDS011;44967;48.598;15.650;2023-07-16T00:28:11;4.28;;;3.40;;
59193;SDS011;44967;48.598;15.650;2023-07-16T00:30:38;4.55;;;4.05;;
59193;SDS011;44967;48.598;15.650;2023-07-16T00:33:04;5.50;;;3.97;;
59193;SDS011;44967;48.598;15.650;2023-07-16T00:35:29;4.75;;;3.63;;
59193;SDS011;44967;48.598;15.650;2023-07-16T00:37:55;5.57;;;3.70;;
59193;SDS011;44967;48.598;15.650;2023-07-16T00:40:21;3.75;;;3.38;;
59193;SDS011;44967;48.598;15.650;2023-07-16T00:42:46;3.63;;;3.13;;
59193;SDS011;44967;48.598;15.650;2023-07-16T00:45:12;3.78;;;3.45;;
59193;SDS011;44967;48.598;15.650;2023-07-16T00:47:40;4.50;;;3.53;;
59193;SDS011;44967;48.598;15.650;2023-07-16T00:50:08;6.10;;;4.00;;
59193;SDS011;44967;48.598;15.650;2023-07-16T00:52:36;5.57;;;4.07;;
59193;SDS011;44967;48.598;15.650;2023-07-16T00:55:02;7.47;;;4.57;;
59193;SDS011;44967;48.598;15.650;2023-07-16T00:57:28;4.25;;;3.70;;
59193;SDS011;44967;48.598;15.650;2023-07-16T00:59:54;5.72;;;3.80;;
59193;SDS011;44967;48.598;15.650;2023-07-16T01:02:20;4.07;;;3.67;;
59193;SDS011;44967;48.598;15.650;2023-07-16T01:04:46;4.00;;;3.63;;
59193;SDS011;44967;48.598;15.650;2023-07-16T01:07:12;4.25;;;3.60;;
59193;SDS011;44967;48.598;15.650;2023-07-16T01:09:41;5.95;;;4.43;;
59193;SDS011;44967;48.598;15.650;2023-07-16T01:12:08;5.30;;;4.28;;
59193;SDS011;44967;48.598;15.650;2023-07-16T01:14:35;5.07;;;4.28;;
59193;SDS011;44967;48.598;15.650;2023-07-16T01:17:03;5.13;;;4.25;;
59193;SDS011;44967;48.598;15.650;2023-07-16T01:19:32;6.05;;;4.20;;
59193;SDS011;44967;48.598;15.650;2023-07-16T01:30:06;4.80;;;4.30;;
59193;SDS011;44967;48.598;15.650;2023-07-16T01:32:37;4.93;;;4.35;;
59193;SDS011;44967;48.598;15.650;2023-07-16T01:35:04;4.53;;;4.10;;
59193;SDS011;44967;48.598;15.650;2023-07-16T01:37:30;4.75;;;4.18;;
59193;SDS011;44967;48.598;15.650;2023-07-16T01:39:57;5.63;;;4.40;;
59193;SDS011;44967;48.598;15.650;2023-07-16T01:42:23;6.20;;;4.45;;
59193;SDS011;44967;48.598;15.650;2023-07-16T01:44:49;5.93;;;4.60;;
59193;SDS011;44967;48.598;15.650;2023-07-16T01:47:28;5.30;;;4.80;;
59193;SDS011;44967;48.598;15.650;2023-07-16T01:50:05;5.35;;;4.85;;
59193;SDS011;44967;48.598;15.650;2023-07-16T01:52:31;4.72;;;4.28;;
59193;SDS011;44967;48.598;15.650;2023-07-16T01:54:57;5.65;;;4.82;;
59193;SDS011;44967;48.598;15.650;2023-07-16T01:57:22;4.63;;;4.18;;
59193;SDS011;44967;48.598;15.650;2023-07-16T01:59:48;4.90;;;4.30;;
59193;SDS011;44967;48.598;15.650;2023-07-16T02:02:14;5.35;;;3.83;;
59193;SDS011;44967;48.598;15.650;2023-07-16T02:04:40;4.95;;;4.32;;
59193;SDS011;44967;48.598;15.650;2023-07-16T02:07:05;5.05;;;4.32;;
59193;SDS011;44967;48.598;15.650;2023-07-16T02:09:33;5.82;;;4.65;;
59193;SDS011;44967;48.598;15.650;2023-07-16T02:11:59;4.93;;;4.00;;
59193;SDS011;44967;48.598;15.650;2023-07-16T02:14:25;4.38;;;3.88;;
59193;SDS011;44967;48.598;15.650;2023-07-16T02:16:50;6.45;;;4.20;;
59193;SDS011;44967;48.598;15.650;2023-07-16T02:19:16;5.68;;;4.70;;
59193;SDS011;44967;48.598;15.650;2023-07-16T02:21:41;5.10;;;4.10;;
59193;SDS011;44967;48.598;15.650;2023-07-16T02:24:10;7.50;;;4.68;;
59193;SDS011;44967;48.598;15.650;2023-07-16T02:26:35;6.38;;;4.25;;
59193;SDS011;44967;48.598;15.650;2023-07-16T02:29:02;7.18;;;5.03;;
59193;SDS011;44967;48.598;15.650;2023-07-16T02:31:27;5.35;;;4.43;;
59193;SDS011;44967;48.598;15.650;2023-07-16T02:33:53;5.93;;;4.10;;
59193;SDS011;44967;48.598;15.650;2023-07-16T02:36:18;5.22;;;4.57;;
59193;SDS011;44967;48.598;15.650;2023-07-16T02:38:44;5.43;;;4.50;;
59193;SDS011;44967;48.598;15.650;2023-07-16T02:41:10;8.00;;;5.68;;
59193;SDS011;44967;48.598;15.650;2023-07-16T02:43:35;9.80;;;7.38;;
59193;SDS011;44967;48.598;15.650;2023-07-16T02:46:01;8.90;;;6.20;;
59193;SDS011;44967;48.598;15.650;2023-07-16T02:48:27;6.05;;;5.40;;
59193;SDS011;44967;48.598;15.650;2023-07-16T02:50:52;7.65;;;5.60;;
59193;SDS011;44967;48.598;15.650;2023-07-16T02:53:18;6.72;;;5.80;;
59193;SDS011;44967;48.598;15.650;2023-07-16T02:55:45;6.13;;;5.13;;
59193;SDS011;44967;48.598;15.650;2023-07-16T02:58:11;6.00;;;4.85;;
59193;SDS011;44967;48.598;15.650;2023-07-16T03:00:37;6.75;;;4.68;;
59193;SDS011;44967;48.598;15.650;2023-07-16T03:03:02;7.10;;;4.93;;
59193;SDS011;44967;48.598;15.650;2023-07-16T03:05:28;6.47;;;4.85;;
59193;SDS011;44967;48.598;15.650;2023-07-16T03:07:54;6.28;;;5.20;;
59193;SDS011;44967;48.598;15.650;2023-07-16T03:10:20;6.25;;;4.93;;
59193;SDS011;44967;48.598;15.650;2023-07-16T03:12:46;5.93;;;4.65;;
59193;SDS011;44967;48.598;15.650;2023-07-16T03:15:12;5.05;;;4.55;;
59193;SDS011;44967;48.598;15.650;2023-07-16T03:17:38;6.68;;;4.68;;
59193;SDS011;44967;48.598;15.650;2023-07-16T03:20:04;6.72;;;4.95;;
59193;SDS011;44967;48.598;15.650;2023-07-16T03:22:31;9.57;;;5.20;;
59193;SDS011;44967;48.598;15.650;2023-07-16T03:24:57;6.47;;;4.72;;
59193;SDS011;44967;48.598;15.650;2023-07-16T03:27:22;4.32;;;3.92;;
59193;SDS011;44967;48.598;15.650;2023-07-16T03:29:48;5.60;;;4.10;;
59193;SDS011;44967;48.598;15.650;2023-07-16T03:32:14;7.03;;;5.18;;
59193;SDS011;44967;48.598;15.650;2023-07-16T03:34:39;6.50;;;5.07;;
59193;SDS011;44967;48.598;15.650;2023-07-16T03:37:05;6.70;;;5.00;;
59193;SDS011;44967;48.598;15.650;2023-07-16T03:39:31;5.53;;;4.93;;
59193;SDS011;44967;48.598;15.650;2023-07-16T03:41:57;6.18;;;4.93;;
59193;SDS011;44967;48.598;15.650;2023-07-16T03:44:23;8.90;;;5.85;;
59193;SDS011;44967;48.598;15.650;2023-07-16T03:46:48;7.28;;;5.95;;
59193;SDS011;44967;48.598;15.650;2023-07-16T03:49:14;5.43;;;4.82;;
59193;SDS011;44967;48.598;15.650;2023-07-16T03:51:39;8.95;;;6.00;;
59193;SDS011;44967;48.598;15.650;2023-07-16T03:54:05;7.35;;;6.13;;
59193;SDS011;44967;48.598;15.650;2023-07-16T03:56:31;8.07;;;6.25;;
59193;SDS011;44967;48.598;15.650;2023-07-16T03:58:56;8.15;;;5.88;;
59193;SDS011;44967;48.598;15.650;2023-07-16T04:01:22;7.25;;;5.88;;
59193;SDS011;44967;48.598;15.650;2023-07-16T04:03:48;6.97;;;5.28;;
59193;SDS011;44967;48.598;15.650;2023-07-16T04:06:14;7.45;;;5.72;;
59193;SDS011;44967;48.598;15.650;2023-07-16T04:08:39;6.47;;;5.38;;
59193;SDS011;44967;48.598;15.650;2023-07-16T04:11:05;6.90;;;5.93;;
59193;SDS011;44967;48.598;15.650;2023-07-16T04:13:31;8.05;;;5.40;;
59193;SDS011;44967;48.598;15.650;2023-07-16T04:15:57;7.10;;;5.30;;
59193;SDS011;44967;48.598;15.650;2023-07-16T04:18:26;6.03;;;5.32;;
59193;SDS011;44967;48.598;15.650;2023-07-16T04:20:52;7.63;;;5.13;;
59193;SDS011;44967;48.598;15.650;2023-07-16T04:23:18;6.03;;;5.15;;
59193;SDS011;44967;48.598;15.650;2023-07-16T04:25:45;6.38;;;5.47;;
59193;SDS011;44967;48.598;15.650;2023-07-16T04:28:11;6.15;;;5.40;;
59193;SDS011;44967;48.598;15.650;2023-07-16T04:30:38;6.15;;;5.30;;
59193;SDS011;44967;48.598;15.650;2023-07-16T04:33:04;7.53;;;5.60;;
59193;SDS011;44967;48.598;15.650;2023-07-16T04:35:29;6.30;;;5.55;;
59193;SDS011;44967;48.598;15.650;2023-07-16T04:37:55;8.30;;;5.82;;
59193;SDS011;44967;48.598;15.650;2023-07-16T04:40:21;8.73;;;5.45;;
59193;SDS011;44967;48.598;15.650;2023-07-16T04:42:46;6.45;;;5.63;;
59193;SDS011;44967;48.598;15.650;2023-07-16T04:45:12;6.05;;;5.45;;
59193;SDS011;44967;48.598;15.650;2023-07-16T04:47:38;7.80;;;6.10;;
59193;SDS011;44967;48.598;15.650;2023-07-16T04:50:04;7.78;;;5.57;;
59193;SDS011;44967;48.598;15.650;2023-07-16T04:52:31;6.60;;;5.45;;
59193;SDS011;44967;48.598;15.650;2023-07-16T04:54:56;6.38;;;5.38;;
59193;SDS011;44967;48.598;15.650;2023-07-16T04:57:22;6.00;;;5.40;;
59193;SDS011;44967;48.598;15.650;2023-07-16T04:59:48;8.00;;;6.05;;
59193;SDS011;44967;48.598;15.650;2023-07-16T05:02:13;6.25;;;5.65;;
59193;SDS011;44967;48.598;15.650;2023-07-16T05:04:41;6.35;;;5.32;;
59193;SDS011;44967;48.598;15.650;2023-07-16T05:07:09;7.38;;;5.93;;
59193;SDS011;44967;48.598;15.650;2023-07-16T05:09:35;6.38;;;5.78;;
59193;SDS011;44967;48.598;15.650;2023-07-16T05:12:02;5.72;;;5.13;;
59193;SDS011;44967;48.598;15.650;2023-07-16T05:14:27;7.10;;;5.20;;
59193;SDS011;44967;48.598;15.650;2023-07-16T05:16:54;5.65;;;4.93;;
59193;SDS011;44967;48.598;15.650;2023-07-16T05:19:20;6.07;;;4.93;;
59193;SDS011;44967;48.598;15.650;2023-07-16T05:21:46;5.40;;;4.90;;
59193;SDS011;44967;48.598;15.650;2023-07-16T05:24:12;5.45;;;5.00;;
59193;SDS011;44967;48.598;15.650;2023-07-16T05:26:37;6.00;;;5.38;;
59193;SDS011;44967;48.598;15.650;2023-07-16T05:29:03;6.50;;;5.07;;
59193;SDS011;44967;48.598;15.650;2023-07-16T05:31:29;6.45;;;5.47;;
59193;SDS011;44967;48.598;15.650;2023-07-16T05:33:54;7.22;;;5.18;;
59193;SDS011;44967;48.598;15.650;2023-07-16T05:36:20;7.65;;;5.35;;
59193;SDS011;44967;48.598;15.650;2023-07-16T05:38:45;7.32;;;5.78;;
59193;SDS011;44967;48.598;15.650;2023-07-16T05:41:11;9.65;;;5.18;;
59193;SDS011;44967;48.598;15.650;2023-07-16T05:43:37;5.70;;;5.20;;
59193;SDS011;44967;48.598;15.650;2023-07-16T05:46:02;5.60;;;5.05;;
59193;SDS011;44967;48.598;15.650;2023-07-16T05:48:30;5.18;;;4.68;;
59193;SDS011;44967;48.598;15.650;2023-07-16T05:50:56;7.15;;;5.22;;
59193;SDS011;44967;48.598;15.650;2023-07-16T05:53:22;6.18;;;5.47;;
59193;SDS011;44967;48.598;15.650;2023-07-16T05:55:48;5.43;;;4.45;;
59193;SDS011;44967;48.598;15.650;2023-07-16T05:58:15;12.18;;;5.20;;
59193;SDS011;44967;48.598;15.650;2023-07-16T06:00:44;4.65;;;4.18;;
59193;SDS011;44967;48.598;15.650;2023-07-16T06:03:10;5.53;;;4.43;;
59193;SDS011;44967;48.598;15.650;2023-07-16T06:05:35;4.50;;;4.10;;
59193;SDS011;44967;48.598;15.650;2023-07-16T06:08:02;8.60;;;4.40;;
59193;SDS011;44967;48.598;15.650;2023-07-16T06:10:28;4.72;;;4.00;;
59193;SDS011;44967;48.598;15.650;2023-07-16T06:12:53;5.47;;;3.80;;
59193;SDS011;44967;48.598;15.650;2023-07-16T06:15:19;4.68;;;3.28;;
59193;SDS011;44967;48.598;15.650;2023-07-16T06:17:45;3.30;;;3.00;;
59193;SDS011;44967;48.598;15.650;2023-07-16T06:20:10;3.38;;;2.92;;
59193;SDS011;44967;48.598;15.650;2023-07-16T06:22:39;3.75;;;3.00;;
59193;SDS011;44967;48.598;15.650;2023-07-16T06:25:05;3.67;;;2.70;;
59193;SDS011;44967;48.598;15.650;2023-07-16T06:27:32;3.35;;;2.90;;
59193;SDS011;44967;48.598;15.650;2023-07-16T06:29:58;4.75;;;2.85;;
59193;SDS011;44967;48.598;15.650;2023-07-16T06:32:23;3.50;;;2.65;;
59193;SDS011;44967;48.598;15.650;2023-07-16T06:34:49;3.83;;;2.47;;
59193;SDS011;44967;48.598;15.650;2023-07-16T06:37:14;3.22;;;2.42;;
59193;SDS011;44967;48.598;15.650;2023-07-16T06:39:40;2.90;;;2.60;;
59193;SDS011;44967;48.598;15.650;2023-07-16T06:42:06;2.65;;;2.30;;
59193;SDS011;44967;48.598;15.650;2023-07-16T06:44:31;2.65;;;2.45;;
59193;SDS011;44967;48.598;15.650;2023-07-16T06:46:57;2.75;;;2.33;;
59193;SDS011;44967;48.598;15.650;2023-07-16T06:49:23;2.30;;;2.10;;
59193;SDS011;44967;48.598;15.650;2023-07-16T06:51:48;2.97;;;2.40;;
59193;SDS011;44967;48.598;15.650;2023-07-16T06:54:14;2.67;;;2.38;;
59193;SDS011;44967;48.598;15.650;2023-07-16T06:56:39;4.22;;;2.67;;
59193;SDS011;44967;48.598;15.650;2023-07-16T06:59:05;3.80;;;2.47;;
59193;SDS011;44967;48.598;15.650;2023-07-16T07:01:31;4.35;;;2.50;;
59193;SDS011;44967;48.598;15.650;2023-07-16T07:03:56;2.95;;;2.40;;
59193;SDS011;44967;48.598;15.650;2023-07-16T07:06:22;3.03;;;2.42;;
59193;SDS011;44967;48.598;15.650;2023-07-16T07:08:48;3.45;;;2.30;;
59193;SDS011;44967;48.598;15.650;2023-07-16T07:11:13;3.83;;;2.67;;
59193;SDS011;44967;48.598;15.650;2023-07-16T07:13:39;3.60;;;2.22;;
59193;SDS011;44967;48.598;15.650;2023-07-16T07:16:04;4.05;;;2.67;;
59193;SDS011;44967;48.598;15.650;2023-07-16T07:18:31;2.70;;;2.50;;
59193;SDS011;44967;48.598;15.650;2023-07-16T07:20:56;2.33;;;2.13;;
59193;SDS011;44967;48.598;15.650;2023-07-16T07:23:22;4.85;;;2.50;;
59193;SDS011;44967;48.598;15.650;2023-07-16T07:25:48;3.28;;;2.30;;
59193;SDS011;44967;48.598;15.650;2023-07-16T07:28:18;2.97;;;2.00;;
59193;SDS011;44967;48.598;15.650;2023-07-16T07:30:44;2.45;;;1.90;;
59193;SDS011;44967;48.598;15.650;2023-07-16T07:33:11;2.00;;;1.80;;
59193;SDS011;44967;48.598;15.650;2023-07-16T07:35:37;2.40;;;2.20;;
59193;SDS011;44967;48.598;15.650;2023-07-16T07:38:02;2.35;;;1.98;;
59193;SDS011;44967;48.598;15.650;2023-07-16T07:40:28;2.40;;;2.00;;
59193;SDS011;44967;48.598;15.650;2023-07-16T07:42:54;2.13;;;2.03;;
59193;SDS011;44967;48.598;15.650;2023-07-16T07:45:20;2.67;;;1.63;;
59193;SDS011;44967;48.598;15.650;2023-07-16T07:47:45;2.10;;;1.90;;
59193;SDS011;44967;48.598;15.650;2023-07-16T07:50:11;2.40;;;1.90;;
59193;SDS011;44967;48.598;15.650;2023-07-16T07:52:37;1.55;;;1.45;;
59193;SDS011;44967;48.598;15.650;2023-07-16T07:55:03;4.15;;;1.77;;
59193;SDS011;44967;48.598;15.650;2023-07-16T07:57:29;1.70;;;1.60;;
59193;SDS011;44967;48.598;15.650;2023-07-16T07:59:55;2.17;;;1.63;;
59193;SDS011;44967;48.598;15.650;2023-07-16T08:02:23;2.45;;;1.80;;
59193;SDS011;44967;48.598;15.650;2023-07-16T08:04:53;2.33;;;2.00;;
59193;SDS011;44967;48.598;15.650;2023-07-16T08:07:20;2.03;;;1.55;;
59193;SDS011;44967;48.598;15.650;2023-07-16T08:09:51;2.45;;;2.05;;
59193;SDS011;44967;48.598;15.650;2023-07-16T08:12:17;2.30;;;2.10;;
59193;SDS011;44967;48.598;15.650;2023-07-16T08:14:42;2.10;;;1.88;;
59193;SDS011;44967;48.598;15.650;2023-07-16T12:40:14;2.53;;;2.13;;
59193;SDS011;44967;48.598;15.650;2023-07-16T12:42:39;1.75;;;1.42;;
59193;SDS011;44967;48.598;15.650;2023-07-16T12:45:05;1.52;;;1.42;;
59193;SDS011;44967;48.598;15.650;2023-07-16T12:47:31;1.58;;;1.48;;
59193;SDS011;44967;48.598;15.650;2023-07-16T12:49:57;2.08;;;1.30;;
59193;SDS011;44967;48.598;15.650;2023-07-16T12:52:22;1.30;;;1.20;;
59193;SDS011;44967;48.598;15.650;2023-07-16T12:54:48;1.65;;;1.55;;
59193;SDS011;44967;48.598;15.650;2023-07-16T12:57:14;1.77;;;1.40;;
59193;SDS011;44967;48.598;15.650;2023-07-16T12:59:40;2.35;;;1.60;;
59193;SDS011;44967;48.598;15.650;2023-07-16T13:02:06;1.48;;;1.40;;
59193;SDS011;44967;48.598;15.650;2023-07-16T13:04:32;2.63;;;1.58;;
59193;SDS011;44967;48.598;15.650;2023-07-16T13:06:57;1.30;;;1.20;;
59193;SDS011;44967;48.598;15.650;2023-07-16T13:09:23;1.50;;;1.40;;
59193;SDS011;44967;48.598;15.650;2023-07-16T13:11:49;2.47;;;1.70;;
59193;SDS011;44967;48.598;15.650;2023-07-16T13:14:16;1.38;;;1.38;;
59193;SDS011;44967;48.598;15.650;2023-07-16T13:16:42;2.13;;;1.50;;
59193;SDS011;44967;48.598;15.650;2023-07-16T13:19:08;1.92;;;1.58;;
59193;SDS011;44967;48.598;15.650;2023-07-16T13:21:34;1.77;;;1.65;;
59193;SDS011;44967;48.598;15.650;2023-07-16T13:24:00;1.67;;;1.58;;
59193;SDS011;44967;48.598;15.650;2023-07-16T13:26:26;1.55;;;1.45;;
59193;SDS011;44967;48.598;15.650;2023-07-16T13:28:51;1.20;;;1.10;;
59193;SDS011;44967;48.598;15.650;2023-07-16T13:31:17;1.70;;;1.25;;
59193;SDS011;44967;48.598;15.650;2023-07-16T13:33:44;1.30;;;1.20;;
59193;SDS011;44967;48.598;15.650;2023-07-16T13:36:09;1.38;;;1.30;;
59193;SDS011;44967;48.598;15.650;2023-07-16T13:38:35;1.70;;;1.60;;
59193;SDS011;44967;48.598;15.650;2023-07-16T13:41:01;1.30;;;1.20;;
59193;SDS011;44967;48.598;15.650;2023-07-16T13:43:28;1.45;;;1.20;;
59193;SDS011;44967;48.598;15.650;2023-07-16T13:45:54;3.67;;;1.60;;
59193;SDS011;44967;48.598;15.650;2023-07-16T13:48:20;2.33;;;1.40;;
59193;SDS011;44967;48.598;15.650;2023-07-16T13:50:46;1.50;;;1.40;;
59193;SDS011;44967;48.598;15.650;2023-07-16T13:53:12;1.73;;;1.63;;
59193;SDS011;44967;48.598;15.650;2023-07-16T13:55:38;2.22;;;1.20;;
59193;SDS011;44967;48.598;15.650;2023-07-16T13:58:04;1.63;;;1.17;;
59193;SDS011;44967;48.598;15.650;2023-07-16T14:00:31;2.03;;;1.40;;
59193;SDS011;44967;48.598;15.650;2023-07-16T14:02:56;1.70;;;1.60;;
59193;SDS011;44967;48.598;15.650;2023-07-16T14:05:23;2.35;;;1.25;;
59193;SDS011;44967;48.598;15.650;2023-07-16T14:07:48;1.77;;;1.50;;
59193;SDS011;44967;48.598;15.650;2023-07-16T14:10:16;1.48;;;1.38;;
59193;SDS011;44967;48.598;15.650;2023-07-16T14:12:42;3.15;;;1.50;;
59193;SDS011;44967;48.598;15.650;2023-07-16T14:15:08;1.73;;;1.30;;
59193;SDS011;44967;48.598;15.650;2023-07-16T14:17:35;2.05;;;1.25;;
59193;SDS011;44967;48.598;15.650;2023-07-16T14:20:01;1.30;;;1.20;;
59193;SDS011;44967;48.598;15.650;2023-07-16T14:22:28;1.38;;;1.27;;
59193;SDS011;44967;48.598;15.650;2023-07-16T14:24:54;2.80;;;1.50;;
59193;SDS011;44967;48.598;15.650;2023-07-16T14:27:20;1.92;;;1.15;;
59193;SDS011;44967;48.598;15.650;2023-07-16T14:29:46;1.55;;;1.33;;
59193;SDS011;44967;48.598;15.650;2023-07-16T14:32:13;1.42;;;1.33;;
59193;SDS011;44967;48.598;15.650;2023-07-16T14:34:39;1.42;;;1.20;;
59193;SDS011;44967;48.598;15.650;2023-07-16T14:37:05;1.55;;;1.25;;
59193;SDS011;44967;48.598;15.650;2023-07-16T14:39:31;1.52;;;1.17;;
59193;SDS011;44967;48.598;15.650;2023-07-16T14:41:57;1.58;;;1.48;;
59193;SDS011;44967;48.598;15.650;2023-07-16T14:44:25;1.48;;;1.38;;
59193;SDS011;44967;48.598;15.650;2023-07-16T14:46:51;1.48;;;1.38;;
59193;SDS011;44967;48.598;15.650;2023-07-16T14:49:18;1.40;;;1.30;;
59193;SDS011;44967;48.598;15.650;2023-07-16T14:51:44;1.45;;;1.33;;
59193;SDS011;44967;48.598;15.650;2023-07-16T14:54:09;1.70;;;1.60;;
59193;SDS011;44967;48.598;15.650;2023-07-16T14:56:35;1.73;;;1.40;;
59193;SDS011;44967;48.598;15.650;2023-07-16T14:59:02;1.30;;;1.15;;
59193;SDS011;44967;48.598;15.650;2023-07-16T15:01:28;1.38;;;1.30;;
59193;SDS011;44967;48.598;15.650;2023-07-16T15:03:54;1.52;;;1.42;;
59193;SDS011;44967;48.598;15.650;2023-07-16T15:06:21;1.67;;;1.33;;
59193;SDS011;44967;48.598;15.650;2023-07-16T15:08:47;1.50;;;1.40;;
59193;SDS011;44967;48.598;15.650;2023-07-16T15:11:13;1.50;;;1.27;;
59193;SDS011;44967;48.598;15.650;2023-07-16T15:13:41;1.40;;;1.30;;
59193;SDS011;44967;48.598;15.650;2023-07-16T15:16:07;1.45;;;1.35;;
59193;SDS011;44967;48.598;15.650;2023-07-16T15:18:33;1.23;;;1.08;;
59193;SDS011;44967;48.598;15.650;2023-07-16T15:20:59;1.25;;;1.15;;
59193;SDS011;44967;48.598;15.650;2023-07-16T15:23:27;1.42;;;1.33;;
59193;SDS011;44967;48.598;15.650;2023-07-16T15:25:54;3.08;;;1.30;;
59193;SDS011;44967;48.598;15.650;2023-07-16T15:28:21;2.13;;;1.35;;
59193;SDS011;44967;48.598;15.650;2023-07-16T15:30:48;2.45;;;1.98;;
59193;SDS011;44967;48.598;15.650;2023-07-16T15:33:14;1.50;;;1.40;;
59193;SDS011;44967;48.598;15.650;2023-07-16T15:35:40;3.00;;;1.23;;
59193;SDS011;44967;48.598;15.650;2023-07-16T15:38:06;1.40;;;1.30;;
59193;SDS011;44967;48.598;15.650;2023-07-16T15:40:33;1.20;;;1.10;;
59193;SDS011;44967;48.598;15.650;2023-07-16T15:42:59;1.30;;;1.20;;
59193;SDS011;44967;48.598;15.650;2023-07-16T15:45:25;1.73;;;1.30;;
59193;SDS011;44967;48.598;15.650;2023-07-16T15:47:52;1.40;;;1.30;;
59193;SDS011;44967;48.598;15.650;2023-07-16T15:50:22;1.83;;;1.60;;
59193;SDS011;44967;48.598;15.650;2023-07-16T15:52:48;1.20;;;1.20;;
59193;SDS011;44967;48.598;15.650;2023-07-16T15:55:16;2.88;;;1.40;;
59193;SDS011;44967;48.598;15.650;2023-07-16T15:57:42;1.40;;;1.30;;
59193;SDS011;44967;48.598;15.650;2023-07-16T16:00:08;1.25;;;1.13;;
59193;SDS011;44967;48.598;15.650;2023-07-16T16:02:45;1.25;;;1.17;;
59193;SDS011;44967;48.598;15.650;2023-07-16T16:05:12;2.28;;;1.40;;
59193;SDS011;44967;48.598;15.650;2023-07-16T16:07:43;2.00;;;1.42;;
59193;SDS011;44967;48.598;15.650;2023-07-16T16:10:13;1.50;;;1.40;;
59193;SDS011;44967;48.598;15.650;2023-07-16T16:12:41;1.52;;;1.20;;
59193;SDS011;44967;48.598;15.650;2023-07-16T16:15:08;1.50;;;1.40;;
59193;SDS011;44967;48.598;15.650;2023-07-16T16:17:37;1.33;;;1.23;;
59193;SDS011;44967;48.598;15.650;2023-07-16T16:20:05;1.60;;;1.50;;
59193;SDS011;44967;48.598;15.650;2023-07-16T16:22:33;2.55;;;1.40;;
59193;SDS011;44967;48.598;15.650;2023-07-16T16:24:59;1.92;;;1.40;;
59193;SDS011;44967;48.598;15.650;2023-07-16T16:27:27;1.50;;;1.40;;
59193;SDS011;44967;48.598;15.650;2023-07-16T16:29:53;2.05;;;1.50;;
59193;SDS011;44967;48.598;15.650;2023-07-16T16:32:20;1.70;;;1.40;;
59193;SDS011;44967;48.598;15.650;2023-07-16T16:34:47;1.52;;;1.42;;
59193;SDS011;44967;48.598;15.650;2023-07-16T16:37:13;1.92;;;1.55;;
59193;SDS011;44967;48.598;15.650;2023-07-16T16:39:39;2.38;;;1.40;;
59193;SDS011;44967;48.598;15.650;2023-07-16T16:42:05;1.30;;;1.20;;
59193;SDS011;44967;48.598;15.650;2023-07-16T16:44:31;1.30;;;1.15;;
59193;SDS011;44967;48.598;15.650;2023-07-16T16:46:57;1.45;;;1.35;;
59193;SDS011;44967;48.598;15.650;2023-07-16T16:49:23;3.17;;;1.60;;
59193;SDS011;44967;48.598;15.650;2023-07-16T16:51:49;1.40;;;1.30;;
59193;SDS011;44967;48.598;15.650;2023-07-16T16:54:16;1.50;;;1.40;;
59193;SDS011;44967;48.598;15.650;2023-07-16T16:56:41;1.77;;;1.30;;
59193;SDS011;44967;48.598;15.650;2023-07-16T16:59:08;2.05;;;1.67;;
59193;SDS011;44967;48.598;15.650;2023-07-16T17:01:35;1.00;;;1.00;;
59193;SDS011;44967;48.598;15.650;2023-07-16T17:04:01;1.30;;;1.20;;
59193;SDS011;44967;48.598;15.650;2023-07-16T17:06:27;1.50;;;1.40;;
59193;SDS011;44967;48.598;15.650;2023-07-16T17:08:53;2.03;;;1.55;;
59193;SDS011;44967;48.598;15.650;2023-07-16T17:11:19;1.25;;;1.15;;
59193;SDS011;44967;48.598;15.650;2023-07-16T17:13:44;1.35;;;1.20;;
59193;SDS011;44967;48.598;15.650;2023-07-16T17:16:11;1.02;;;1.02;;
59193;SDS011;44967;48.598;15.650;2023-07-16T17:18:36;1.80;;;0.90;;
59193;SDS011;44967;48.598;15.650;2023-07-16T17:21:02;1.60;;;1.42;;
59193;SDS011;44967;48.598;15.650;2023-07-16T17:23:28;2.25;;;1.58;;
59193;SDS011;44967;48.598;15.650;2023-07-16T17:25:54;1.60;;;1.50;;
59193;SDS011;44967;48.598;15.650;2023-07-16T17:28:20;2.97;;;1.55;;
59193;SDS011;44967;48.598;15.650;2023-07-16T17:30:45;3.50;;;1.20;;
59193;SDS011;44967;48.598;15.650;2023-07-16T17:33:11;1.63;;;1.30;;
59193;SDS011;44967;48.598;15.650;2023-07-16T17:35:37;1.65;;;1.40;;
59193;SDS011;44967;48.598;15.650;2023-07-16T17:38:03;2.88;;;1.20;;
59193;SDS011;44967;48.598;15.650;2023-07-16T17:40:29;2.88;;;1.58;;
59193;SDS011;44967;48.598;15.650;2023-07-16T17:42:54;1.70;;;1.40;;
59193;SDS011;44967;48.598;15.650;2023-07-16T17:45:20;1.60;;;1.50;;
59193;SDS011;44967;48.598;15.650;2023-07-16T17:47:46;1.67;;;1.55;;
59193;SDS011;44967;48.598;15.650;2023-07-16T17:50:12;1.52;;;1.30;;
59193;SDS011;44967;48.598;15.650;2023-07-16T17:52:37;1.40;;;1.30;;
59193;SDS011;44967;48.598;15.650;2023-07-16T17:55:03;2.03;;;1.40;;
59193;SDS011;44967;48.598;15.650;2023-07-16T17:57:30;1.45;;;1.35;;
59193;SDS011;44967;48.598;15.650;2023-07-16T17:59:55;1.67;;;1.42;;
59193;SDS011;44967;48.598;15.650;2023-07-16T18:02:21;1.60;;;1.40;;
59193;SDS011;44967;48.598;15.650;2023-07-16T18:04:48;1.95;;;1.20;;
59193;SDS011;44967;48.598;15.650;2023-07-16T18:07:17;1.92;;;1.08;;
59193;SDS011;44967;48.598;15.650;2023-07-16T18:09:46;2.08;;;1.80;;
59193;SDS011;44967;48.598;15.650;2023-07-16T18:12:15;1.50;;;1.40;;
59193;SDS011;44967;48.598;15.650;2023-07-16T18:14:41;1.50;;;1.40;;
59193;SDS011;44967;48.598;15.650;2023-07-16T18:17:07;1.42;;;1.33;;
59193;SDS011;44967;48.598;15.650;2023-07-16T18:19:33;1.85;;;1.30;;
59193;SDS011;44967;48.598;15.650;2023-07-16T18:22:00;1.40;;;1.30;;
59193;SDS011;44967;48.598;15.650;2023-07-16T18:24:26;2.15;;;1.63;;
59193;SDS011;44967;48.598;15.650;2023-07-16T18:26:52;1.92;;;1.77;;
59193;SDS011;44967;48.598;15.650;2023-07-16T18:29:21;1.38;;;1.27;;
59193;SDS011;44967;48.598;15.650;2023-07-16T18:31:47;3.08;;;1.85;;
59193;SDS011;44967;48.598;15.650;2023-07-16T18:34:13;2.60;;;1.40;;
59193;SDS011;44967;48.598;15.650;2023-07-16T18:36:39;2.13;;;1.60;;
59193;SDS011;44967;48.598;15.650;2023-07-16T18:39:05;3.55;;;2.55;;
59193;SDS011;44967;48.598;15.650;2023-07-16T18:41:31;6.30;;;2.78;;
59193;SDS011;44967;48.598;15.650;2023-07-16T18:43:57;4.32;;;3.00;;
59193;SDS011;44967;48.598;15.650;2023-07-16T18:46:23;2.70;;;2.47;;
59193;SDS011;44967;48.598;15.650;2023-07-16T18:48:49;3.10;;;2.15;;
59193;SDS011;44967;48.598;15.650;2023-07-16T18:51:15;2.55;;;2.08;;
59193;SDS011;44967;48.598;15.650;2023-07-16T18:53:43;2.28;;;2.03;;
59193;SDS011;44967;48.598;15.650;2023-07-16T18:56:11;2.78;;;1.70;;
59193;SDS011;44967;48.598;15.650;2023-07-16T18:58:36;2.00;;;1.50;;